Time;durP1;ratioP1;P1;durP2;ratioP2;P2;SDS_P1;SDS_P2;PMS_P1;PMS_P2;Temp;Humidity;BMP_temperature;BMP_pressure;BME280_temperature;BME280_humidity;BME280_pressure;Samples;Min_cycle;Max_cycle;Signal;HPM_P1;HPM_P2
2020/12/29 00:01:45;;;;;;;18.10;12.63;;;;;;;-0.29;83.68;100115.27;1838531;78;20879;-76
2020/12/29 00:04:20;;;;;;;21.10;14.33;;;;;;;-0.30;83.99;100107.61;1838615;77;20914;-74
2020/12/29 00:06:53;;;;;;;20.00;13.38;;;;;;;-0.31;84.21;100096.53;1838484;77;21182;-76
2020/12/29 00:09:23;;;;;;;20.43;12.60;;;;;;;-0.31;84.36;100102.93;1838480;78;21380;-76
2020/12/29 00:11:53;;;;;;;22.45;13.40;;;;;;;-0.31;84.57;100101.65;1838423;77;21436;-74
2020/12/29 00:14:25;;;;;;;19.55;13.75;;;;;;;-0.34;85.00;100107.64;1838397;78;21001;-76
2020/12/29 00:16:53;;;;;;;19.95;13.13;;;;;;;-0.35;85.35;100107.66;1838582;78;21547;-76
2020/12/29 00:19:26;;;;;;;21.17;13.93;;;;;;;-0.33;85.81;100105.94;1838401;78;22140;-75
2020/12/29 00:21:54;;;;;;;17.30;12.33;;;;;;;-0.34;86.08;100116.59;1838390;78;21491;-76
2020/12/29 00:24:22;;;;;;;19.77;13.58;;;;;;;-0.34;86.18;100114.04;1838485;78;21423;-75
2020/12/29 00:26:54;;;;;;;19.60;12.95;;;;;;;-0.35;86.64;100109.78;1836824;78;20930;-68
2020/12/29 00:29:23;;;;;;;20.43;13.78;;;;;;;-0.36;86.59;100096.58;1838450;78;21567;-76
2020/12/29 00:31:51;;;;;;;20.60;13.68;;;;;;;-0.37;86.87;100090.20;1838319;78;22164;-76
2020/12/29 00:34:20;;;;;;;21.95;13.08;;;;;;;-0.37;86.98;100104.27;1838376;78;21325;-76
2020/12/29 00:36:51;;;;;;;20.77;11.95;;;;;;;-0.37;87.03;100110.23;1838444;77;21464;-73
2020/12/29 00:39:19;;;;;;;18.65;12.80;;;;;;;-0.37;87.03;100101.71;1809721;78;21017;-77
2020/12/29 00:41:48;;;;;;;18.27;12.18;;;;;;;-0.38;87.01;100096.17;1838428;78;21001;-76
2020/12/29 00:44:17;;;;;;;20.15;13.45;;;;;;;-0.39;86.96;100101.73;1838396;78;22145;-78
2020/12/29 00:46:45;;;;;;;19.62;13.25;;;;;;;-0.41;87.05;100084.30;1838333;78;21595;-77
2020/12/29 00:49:13;;;;;;;17.87;12.30;;;;;;;-0.44;86.73;100087.32;1838403;78;21539;-78
2020/12/29 00:51:42;;;;;;;19.35;12.88;;;;;;;-0.44;86.60;100088.16;1838323;77;21005;-77
2020/12/29 00:54:10;;;;;;;20.25;13.58;;;;;;;-0.46;86.63;100083.50;1838441;78;21539;-77
2020/12/29 00:56:41;;;;;;;18.10;12.58;;;;;;;-0.48;86.59;100080.11;1837897;78;21185;-77
2020/12/29 00:59:09;;;;;;;18.73;12.82;;;;;;;-0.48;86.77;100075.42;1838300;77;21455;-75
2020/12/29 01:01:39;;;;;;;17.52;12.93;;;;;;;-0.48;86.45;100076.70;1838497;77;21421;-75
2020/12/29 01:04:09;;;;;;;15.43;11.97;;;;;;;-0.49;86.34;100077.56;1833407;78;20887;-79
2020/12/29 01:06:38;;;;;;;18.48;13.18;;;;;;;-0.49;86.30;100089.92;1838405;78;21460;-78
2020/12/29 01:09:08;;;;;;;20.82;13.15;;;;;;;-0.50;86.11;100091.22;1838184;78;22085;-76
2020/12/29 01:11:37;;;;;;;17.98;12.73;;;;;;;-0.50;86.03;100077.15;1838400;77;21357;-78
2020/12/29 01:14:06;;;;;;;15.32;11.95;;;;;;;-0.52;86.08;100079.72;1838454;77;21456;-77
2020/12/29 01:16:38;;;;;;;19.07;12.58;;;;;;;-0.55;85.97;100078.47;1837402;78;20922;-77
2020/12/29 01:19:07;;;;;;;17.50;11.70;;;;;;;-0.59;85.94;100067.86;1838434;77;20960;-77
2020/12/29 01:21:35;;;;;;;17.02;11.95;;;;;;;-0.59;86.07;100055.50;1838373;78;22183;-76
2020/12/29 01:24:03;;;;;;;17.07;12.30;;;;;;;-0.59;86.27;100066.58;1838291;78;21611;-76
2020/12/29 01:26:32;;;;;;;16.65;12.28;;;;;;;-0.57;86.39;100056.33;1838354;78;21631;-73
2020/12/29 01:29:00;;;;;;;20.23;13.38;;;;;;;-0.57;86.33;100064.85;1838331;78;21590;-76
2020/12/29 01:31:31;;;;;;;18.98;12.45;;;;;;;-0.57;86.10;100064.85;1838422;78;21479;-77
2020/12/29 01:34:00;;;;;;;15.03;12.03;;;;;;;-0.60;86.05;100055.94;1838389;78;21318;-76
2020/12/29 01:36:28;;;;;;;18.48;13.32;;;;;;;-0.63;86.26;100046.16;1838308;78;21468;-77
2020/12/29 01:38:56;;;;;;;18.42;13.22;;;;;;;-0.65;86.72;100054.28;1838375;78;21475;-65
2020/12/29 01:41:25;;;;;;;20.68;14.68;;;;;;;-0.66;86.94;100039.38;1838368;78;21475;-65
2020/12/29 01:43:53;;;;;;;20.12;14.05;;;;;;;-0.67;87.02;100034.69;1838395;78;21423;-75
2020/12/29 01:46:21;;;;;;;21.65;14.70;;;;;;;-0.68;86.90;100034.27;1838370;78;22100;-65
2020/12/29 01:48:50;;;;;;;18.95;13.03;;;;;;;-0.70;87.05;100040.27;1838335;78;21475;-64
2020/12/29 01:51:18;;;;;;;19.10;12.90;;;;;;;-0.71;86.78;100041.97;1838442;78;21603;-64
2020/12/29 01:53:46;;;;;;;19.07;13.45;;;;;;;-0.72;86.77;100035.16;1838335;77;21479;-65
2020/12/29 01:56:15;;;;;;;19.60;13.55;;;;;;;-0.73;86.80;100021.97;1838395;78;21448;-76
2020/12/29 01:58:45;;;;;;;17.73;12.95;;;;;;;-0.73;86.79;100024.52;1809384;78;22057;-65
2020/12/29 02:01:14;;;;;;;21.12;14.93;;;;;;;-0.74;86.66;100033.05;1838419;78;21484;-65
2020/12/29 02:03:42;;;;;;;17.05;12.60;;;;;;;-0.74;86.78;100030.93;1838322;78;21582;-77
2020/12/29 02:06:10;;;;;;;18.95;13.43;;;;;;;-0.75;86.74;100033.06;1838316;78;21630;-74
2020/12/29 02:08:41;;;;;;;19.23;13.83;;;;;;;-0.77;86.55;100043.31;1838349;78;21021;-72
2020/12/29 02:11:09;;;;;;;15.70;12.00;;;;;;;-0.79;86.59;100030.13;1838370;78;22141;-65
2020/12/29 02:13:41;;;;;;;17.15;13.28;;;;;;;-0.81;86.72;100018.67;1838359;78;21377;-65
2020/12/29 02:16:09;;;;;;;20.65;14.15;;;;;;;-0.83;86.92;100019.11;1838309;78;21033;-74
2020/12/29 02:18:38;;;;;;;18.17;13.03;;;;;;;-0.84;87.22;100007.63;1838277;78;21445;-70
2020/12/29 02:21:07;;;;;;;23.38;15.55;;;;;;;-0.87;87.58;100008.50;1838467;78;21456;-67
2020/12/29 02:23:36;;;;;;;29.75;21.60;;;;;;;-0.91;87.78;100008.11;1838340;78;22156;-69
2020/12/29 02:26:04;;;;;;;27.48;17.77;;;;;;;-0.91;88.10;100005.56;1838280;78;21240;-76
2020/12/29 02:28:33;;;;;;;27.17;19.17;;;;;;;-0.89;88.17;100017.89;1838245;78;21551;-77
2020/12/29 02:31:01;;;;;;;27.60;17.82;;;;;;;-0.91;88.42;100012.38;1838374;78;21570;-76
2020/12/29 02:33:30;;;;;;;21.57;15.53;;;;;;;-0.92;88.55;100015.36;1838440;78;21598;-76
2020/12/29 02:35:59;;;;;;;22.00;16.10;;;;;;;-0.92;88.69;100015.80;1839089;77;22146;-76
2020/12/29 02:38:27;;;;;;;20.37;14.98;;;;;;;-0.94;88.89;100004.73;1841532;77;21472;-75
2020/12/29 02:40:56;;;;;;;21.25;15.20;;;;;;;-0.97;88.95;100001.78;1841478;78;21520;-76
2020/12/29 02:43:25;;;;;;;19.05;15.20;;;;;;;-0.99;89.37;99993.72;1841540;78;21512;-73
2020/12/29 02:45:53;;;;;;;25.82;17.90;;;;;;;-1.00;89.71;100001.81;1814082;78;21594;-69
2020/12/29 02:48:21;;;;;;;27.02;19.65;;;;;;;-1.00;89.79;99997.98;1841692;77;22141;-75
2020/12/29 02:50:50;;;;;;;39.48;24.87;;;;;;;-1.01;89.86;99995.85;1841504;77;21029;-74
2020/12/29 02:53:18;;;;;;;54.35;30.70;;;;;;;-0.99;89.91;99993.72;1841633;78;21468;-69
2020/12/29 02:55:47;;;;;;;43.40;27.75;;;;;;;-1.00;89.98;99997.98;1841600;77;21681;-73
2020/12/29 02:58:16;;;;;;;23.95;17.23;;;;;;;-1.01;90.19;99983.50;1841664;78;21448;-76
2020/12/29 03:00:44;;;;;;;36.70;25.60;;;;;;;-1.02;90.43;99983.94;1841638;78;22221;-70
2020/12/29 03:03:14;;;;;;;28.83;20.37;;;;;;;-1.04;90.29;99969.48;1841457;78;21051;-75
2020/12/29 03:05:43;;;;;;;27.35;19.17;;;;;;;-1.04;90.55;99966.49;1841393;78;33540;-74
2020/12/29 03:08:12;;;;;;;27.67;19.05;;;;;;;-1.04;90.61;99954.99;1841467;78;21574;-75
2020/12/29 03:10:40;;;;;;;26.48;17.45;;;;;;;-1.04;90.80;99951.16;1841520;78;21535;-68
2020/12/29 03:13:09;;;;;;;26.25;17.00;;;;;;;-1.03;90.81;99949.45;1841528;78;21333;-73
2020/12/29 03:15:37;;;;;;;23.27;17.48;;;;;;;-1.02;91.01;99937.94;1841467;78;21476;-71
2020/12/29 03:18:06;;;;;;;29.12;21.12;;;;;;;-1.02;91.06;99928.14;1841623;77;21472;-71
2020/12/29 03:20:34;;;;;;;29.15;19.12;;;;;;;-1.05;91.08;99930.73;1841454;77;21468;-66
2020/12/29 03:23:03;;;;;;;24.95;18.12;;;;;;;-1.05;91.31;99925.63;1841531;78;21491;-76
2020/12/29 03:25:31;;;;;;;30.77;20.37;;;;;;;-1.07;91.46;99926.07;1841568;77;22129;-68
2020/12/29 03:28:00;;;;;;;37.58;24.57;;;;;;;-1.10;91.60;99905.23;1841475;78;21590;-68
2020/12/29 03:30:35;;;;;;;32.48;22.22;;;;;;;-1.10;91.67;99905.23;1841570;78;21491;-71
2020/12/29 03:33:04;;;;;;;32.10;21.00;;;;;;;-1.13;91.76;99907.81;1841662;77;21443;-74
2020/12/29 03:35:32;;;;;;;31.87;21.05;;;;;;;-1.14;91.96;99897.61;1841492;77;21487;-75
2020/12/29 03:38:00;;;;;;;27.05;19.60;;;;;;;-1.14;92.16;99892.07;1841563;77;22349;-75
2020/12/29 03:40:29;;;;;;;30.68;22.05;;;;;;;-1.13;92.42;99892.91;1841504;78;21471;-75
2020/12/29 03:42:57;;;;;;;25.30;17.82;;;;;;;-1.12;92.56;99890.34;1841523;77;21349;-71
2020/12/29 03:45:25;;;;;;;29.75;20.85;;;;;;;-1.13;92.75;99880.98;1841482;78;21356;-75
2020/12/29 03:47:54;;;;;;;31.97;21.90;;;;;;;-1.13;92.96;99878.86;1841544;78;21510;-75
2020/12/29 03:50:22;;;;;;;30.82;22.07;;;;;;;-1.13;93.12;99878.86;1841519;78;22210;-75
2020/12/29 03:52:50;;;;;;;33.95;23.30;;;;;;;-1.13;93.34;99880.14;1841494;78;21566;-75
2020/12/29 03:55:19;;;;;;;28.27;19.70;;;;;;;-1.15;93.50;99881.44;1841615;78;21606;-77
2020/12/29 03:57:47;;;;;;;31.20;21.97;;;;;;;-1.13;93.72;99875.88;1841578;78;21504;-77
2020/12/29 04:00:16;;;;;;;28.55;20.48;;;;;;;-1.13;94.00;99873.75;1841454;77;21356;-75
2020/12/29 04:02:44;;;;;;;28.65;20.72;;;;;;;-1.14;94.18;99873.34;1841537;78;22209;-74
2020/12/29 04:05:13;;;;;;;29.60;20.50;;;;;;;-1.15;94.46;99892.93;1841471;78;21547;-75
2020/12/29 04:07:41;;;;;;;28.32;20.12;;;;;;;-1.15;94.73;99896.77;1841722;78;20946;-74
2020/12/29 04:10:10;;;;;;;28.67;20.35;;;;;;;-1.14;94.96;99915.49;1841659;78;21942;-73
2020/12/29 04:12:39;;;;;;;30.52;21.82;;;;;;;-1.13;95.19;99916.75;1841777;77;21277;-75
2020/12/29 04:15:08;;;;;;;26.90;18.67;;;;;;;-1.12;95.30;99921.00;1841674;78;23453;-74
2020/12/29 04:17:41;;;;;;;26.75;19.92;;;;;;;-1.12;95.44;99915.89;1841607;78;21515;-66
2020/12/29 04:20:11;;;;;;;27.15;20.15;;;;;;;-1.10;95.46;99910.77;1841773;77;21615;-72
2020/12/29 04:22:41;;;;;;;25.85;17.35;;;;;;;-1.12;95.45;99915.89;1841619;77;21365;-74
2020/12/29 04:25:10;;;;;;;27.00;20.82;;;;;;;-1.08;95.79;99922.66;1841713;78;21013;-71
2020/12/29 04:27:41;;;;;;;26.82;18.98;;;;;;;-1.03;96.18;99914.95;1841625;78;22169;-75
2020/12/29 04:30:10;;;;;;;28.70;22.77;;;;;;;-0.96;95.97;99914.03;1841622;78;21044;-71
2020/12/29 04:32:38;;;;;;;26.37;19.48;;;;;;;-0.94;95.69;99919.97;1841667;78;20909;-73
2020/12/29 04:35:07;;;;;;;23.73;17.92;;;;;;;-0.93;95.66;99927.20;1841592;78;21503;-74
2020/12/29 04:37:36;;;;;;;27.70;19.17;;;;;;;-0.94;95.36;99915.29;1839462;77;20922;-76
2020/12/29 04:40:05;;;;;;;22.10;17.65;;;;;;;-0.96;95.33;99919.57;1838482;78;23609;-75
2020/12/29 04:42:34;;;;;;;24.30;17.52;;;;;;;-0.94;95.64;99923.80;1838344;78;20954;-73
2020/12/29 04:45:04;;;;;;;25.82;18.48;;;;;;;-0.93;95.32;99938.70;1838411;78;21421;-72
2020/12/29 04:47:32;;;;;;;22.73;17.35;;;;;;;-0.96;95.18;99923.41;1838314;78;21420;-75
2020/12/29 04:50:00;;;;;;;22.52;17.12;;;;;;;-0.96;95.32;99929.80;1838357;78;20993;-75
2020/12/29 04:52:30;;;;;;;28.45;18.57;;;;;;;-0.94;95.57;99934.02;1838442;78;21499;-75
2020/12/29 04:54:59;;;;;;;24.05;17.87;;;;;;;-0.87;95.76;99930.97;1809613;78;20946;-77
2020/12/29 04:57:27;;;;;;;24.30;19.50;;;;;;;-0.84;95.38;99910.06;1838420;78;21511;-76
2020/12/29 04:59:56;;;;;;;23.77;16.70;;;;;;;-0.83;95.31;99904.52;1838363;78;20945;-73
2020/12/29 05:02:25;;;;;;;27.77;19.32;;;;;;;-0.80;95.31;99910.88;1838395;78;20910;-72
2020/12/29 05:04:53;;;;;;;27.02;19.45;;;;;;;-0.78;95.27;99905.27;1838469;78;22448;-74
2020/12/29 05:07:22;;;;;;;25.08;17.35;;;;;;;-0.76;95.17;99903.12;1838297;78;21610;-76
2020/12/29 05:09:50;;;;;;;29.27;21.33;;;;;;;-0.75;94.87;99906.52;1838391;77;21575;-73
2020/12/29 05:12:18;;;;;;;24.95;17.67;;;;;;;-0.77;94.75;99906.53;1838308;78;21473;-65
2020/12/29 05:14:48;;;;;;;29.92;20.15;;;;;;;-0.77;94.70;99905.26;1838385;78;20974;-65
2020/12/29 05:17:16;;;;;;;27.22;18.50;;;;;;;-0.78;94.65;99906.12;1838331;78;21129;-65
2020/12/29 05:19:45;;;;;;;28.83;19.98;;;;;;;-0.76;94.84;99902.27;1838299;78;21571;-71
2020/12/29 05:22:13;;;;;;;26.80;19.00;;;;;;;-0.72;95.05;99897.10;1809018;78;21515;-70
2020/12/29 05:24:47;;;;;;;23.57;16.32;;;;;;;-0.67;95.10;99895.34;1833970;78;20970;-69
2020/12/29 05:27:15;;;;;;;25.68;19.45;;;;;;;-0.61;94.97;99919.14;1808830;78;21483;-65
2020/12/29 05:29:44;;;;;;;26.85;18.85;;;;;;;-0.60;94.47;99922.95;1809064;78;21180;-66
2020/12/29 05:32:23;;;;;;;29.27;20.88;;;;;;;-0.59;94.57;99919.53;1838347;78;21527;-76
2020/12/29 05:34:58;;;;;;;29.63;19.45;;;;;;;-0.57;94.37;99932.30;1838371;77;21005;-76
2020/12/29 05:37:26;;;;;;;33.58;19.45;;;;;;;-0.59;94.23;99944.26;1838245;78;20912;-76
2020/12/29 05:39:55;;;;;;;29.75;21.75;;;;;;;-0.64;94.23;99948.15;1808814;78;21578;-72
2020/12/29 05:42:25;;;;;;;29.20;18.82;;;;;;;-0.65;94.31;99961.80;1838413;78;21341;-76
2020/12/29 05:44:56;;;;;;;34.83;21.70;;;;;;;-0.66;94.38;99958.83;1838347;77;21286;-76
2020/12/29 05:47:26;;;;;;;33.48;21.87;;;;;;;-0.70;94.36;99941.39;1838380;78;21353;-72
2020/12/29 05:49:54;;;;;;;32.05;21.00;;;;;;;-0.73;94.56;99940.16;1838306;78;20989;-72
2020/12/29 05:52:22;;;;;;;37.10;21.68;;;;;;;-0.76;94.64;99937.63;1808652;78;21507;-75
2020/12/29 05:54:51;;;;;;;33.90;22.07;;;;;;;-0.79;94.85;99938.94;1838249;78;21185;-76
2020/12/29 05:57:19;;;;;;;35.60;22.55;;;;;;;-0.77;95.21;99937.21;1808808;78;21483;-77
2020/12/29 05:59:47;;;;;;;39.15;23.38;;;;;;;-0.76;95.15;99932.52;1808834;78;21467;-73
2020/12/29 06:02:16;;;;;;;39.27;25.37;;;;;;;-0.77;95.16;99943.61;1808665;78;21580;-74
2020/12/29 06:04:44;;;;;;;40.00;23.62;;;;;;;-0.75;95.34;99939.75;1838172;77;21527;-72
2020/12/29 06:07:13;;;;;;;41.02;25.82;;;;;;;-0.71;95.50;99951.64;1837218;78;21420;-69
2020/12/29 06:09:41;;;;;;;35.05;23.22;;;;;;;-0.70;95.33;99963.13;1819655;78;21041;-73
2020/12/29 06:12:10;;;;;;;37.70;23.27;;;;;;;-0.69;95.31;99965.25;1824917;78;20921;-71
2020/12/29 06:14:43;;;;;;;35.68;23.00;;;;;;;-0.67;95.44;99959.26;1805407;79;21384;-69
2020/12/29 06:17:11;;;;;;;36.77;22.15;;;;;;;-0.66;95.32;99963.94;1711517;80;20993;-70
2020/12/29 06:19:39;;;;;;;37.10;22.58;;;;;;;-0.69;95.07;99953.31;1780818;80;21191;-68
2020/12/29 06:22:14;;;;;;;33.18;19.80;;;;;;;-0.73;95.06;99950.81;1761495;80;21486;-72
2020/12/29 06:24:45;;;;;;;37.93;24.05;;;;;;;-0.77;95.17;99946.16;1743683;81;21332;-70
2020/12/29 06:27:14;;;;;;;32.03;21.70;;;;;;;-0.79;95.29;99933.83;1757973;81;21119;-71
2020/12/29 06:29:45;;;;;;;35.58;22.65;;;;;;;-0.79;95.38;99927.87;1761507;81;20997;-75
2020/12/29 06:32:21;;;;;;;42.30;25.32;;;;;;;-0.81;95.44;99906.62;1750159;81;21736;-75
2020/12/29 06:34:49;;;;;;;43.33;26.93;;;;;;;-0.83;95.47;99886.63;1768099;81;21655;-79
2020/12/29 06:37:37;;;;;;;38.60;21.68;;;;;;;-0.86;95.51;99882.82;1752306;81;20935;-73
2020/12/29 06:40:07;;;;;;;35.92;23.80;;;;;;;-0.89;95.66;99878.59;1783571;79;21063;-74
2020/12/29 06:42:41;;;;;;;38.78;22.27;;;;;;;-0.94;95.69;99896.97;1781669;79;21044;-76
2020/12/29 06:45:11;;;;;;;40.38;24.75;;;;;;;-0.97;95.92;99897.00;1813469;77;21406;-76
2020/12/29 06:47:45;;;;;;;40.10;23.67;;;;;;;-1.01;96.12;99886.40;1767205;79;21047;-74
2020/12/29 06:50:32;;;;;;;48.48;26.27;;;;;;;-1.04;96.28;99909.00;1755954;79;21241;-72
2020/12/29 06:53:05;;;;;;;49.85;29.65;;;;;;;-1.05;96.52;99910.29;1766155;81;21125;-77
2020/12/29 06:55:39;;;;;;;44.65;27.93;;;;;;;-1.05;96.67;99928.17;1783616;79;21001;-75
2020/12/29 06:58:08;;;;;;;45.03;26.17;;;;;;;-1.04;96.80;99920.50;1778064;79;21196;-77
2020/12/29 07:00:36;;;;;;;44.77;26.27;;;;;;;-1.02;96.87;99925.59;1779634;79;20969;-75
2020/12/29 07:03:05;;;;;;;42.75;25.82;;;;;;;-1.02;96.94;99931.98;1771956;79;21008;-77
2020/12/29 07:05:36;;;;;;;48.98;28.15;;;;;;;-1.03;96.94;99932.41;1822396;77;21068;-71
2020/12/29 07:08:06;;;;;;;51.23;29.55;;;;;;;-1.04;97.01;99918.38;1809690;77;22127;-70
2020/12/29 07:10:41;;;;;;;55.85;32.53;;;;;;;-1.04;97.09;99932.42;1768910;79;21207;-71
2020/12/29 07:13:16;;;;;;;44.08;25.77;;;;;;;-1.03;97.16;99929.86;1783932;79;21064;-72
2020/12/29 07:15:50;;;;;;;50.43;29.82;;;;;;;-1.01;97.33;99940.06;1765748;79;21022;-66
2020/12/29 07:18:29;;;;;;;47.17;26.90;;;;;;;-1.02;97.25;99936.66;1790985;79;21036;-73
2020/12/29 07:20:58;;;;;;;47.20;28.05;;;;;;;-1.01;97.32;99940.91;1775465;79;21550;-83
2020/12/29 07:23:27;;;;;;;38.70;25.00;;;;;;;-1.00;97.31;99941.75;1768635;79;21183;-83
2020/12/29 07:25:59;;;;;;;53.52;32.15;;;;;;;-0.99;97.40;99946.00;1784184;79;21717;-75
2020/12/29 07:28:29;;;;;;;52.17;30.00;;;;;;;-0.98;97.43;99940.03;1778715;79;21025;-70
2020/12/29 07:30:57;;;;;;;39.05;22.98;;;;;;;-0.95;97.52;99941.70;1789094;79;21077;-71
2020/12/29 07:33:26;;;;;;;42.62;24.32;;;;;;;-0.95;97.44;99927.66;1764981;79;21203;-73
2020/12/29 07:35:54;;;;;;;50.52;28.25;;;;;;;-0.95;97.48;99921.27;1777422;79;22167;-76
2020/12/29 07:38:24;;;;;;;43.60;26.00;;;;;;;-0.95;97.49;99902.94;1775445;79;20998;-72
2020/12/29 07:40:53;;;;;;;38.85;21.93;;;;;;;-0.94;97.58;99888.45;1751917;81;21191;-75
2020/12/29 07:43:21;;;;;;;40.50;25.40;;;;;;;-0.96;97.50;99898.70;1746542;81;21101;-70
2020/12/29 07:45:50;;;;;;;40.65;23.42;;;;;;;-0.96;97.49;99883.79;1746262;80;21106;-67
2020/12/29 07:48:18;;;;;;;55.28;30.70;;;;;;;-0.98;97.65;99892.75;1765842;79;22070;-74
2020/12/29 07:50:47;;;;;;;47.53;29.60;;;;;;;-0.95;97.80;99908.48;1758872;81;21603;-71
2020/12/29 07:53:15;;;;;;;45.90;26.30;;;;;;;-0.92;97.92;99922.08;1750182;81;21476;-74
2020/12/29 07:55:43;;;;;;;44.53;24.82;;;;;;;-0.86;97.98;99916.90;1753843;80;21639;-71
2020/12/29 07:58:11;;;;;;;35.88;23.25;;;;;;;-0.82;97.88;99902.37;1748890;80;20998;-70
2020/12/29 08:00:40;;;;;;;40.88;24.02;;;;;;;-0.82;97.79;99891.72;1739215;82;21182;-76
2020/12/29 08:03:09;;;;;;;41.65;25.88;;;;;;;-0.80;97.82;99904.48;1752749;80;21692;-79
2020/12/29 08:05:39;;;;;;;46.18;26.73;;;;;;;-0.80;97.72;99901.46;1749794;80;21570;-74
2020/12/29 08:08:09;;;;;;;40.08;23.55;;;;;;;-0.81;97.67;99910.02;1750551;80;21085;-68
2020/12/29 08:10:41;;;;;;;46.48;26.17;;;;;;;-0.83;97.69;99910.47;1760623;80;21068;-68
2020/12/29 08:13:16;;;;;;;45.23;25.88;;;;;;;-0.87;97.72;99903.70;1760508;80;23023;-70
2020/12/29 08:15:44;;;;;;;37.17;21.77;;;;;;;-0.88;97.88;99893.06;1760285;80;21653;-72
2020/12/29 08:18:19;;;;;;;41.15;25.08;;;;;;;-0.87;97.95;99892.63;1763525;80;21658;-72
2020/12/29 08:20:56;;;;;;;36.42;22.17;;;;;;;-0.90;98.04;99884.56;1758890;80;21054;-74
2020/12/29 08:23:26;;;;;;;33.18;21.30;;;;;;;-0.88;98.25;99880.28;1762741;80;21065;-69
2020/12/29 08:25:56;;;;;;;32.98;18.85;;;;;;;-0.85;98.29;99874.30;1766547;80;22509;-72
2020/12/29 08:28:30;;;;;;;30.50;20.12;;;;;;;-0.81;98.32;99865.72;1747366;81;21002;-80
2020/12/29 08:31:03;;;;;;;31.33;20.43;;;;;;;-0.81;98.18;99867.84;1751677;81;20958;-71
2020/12/29 08:33:32;;;;;;;32.83;20.75;;;;;;;-0.80;98.27;99889.14;1747723;81;20995;-79
2020/12/29 08:36:02;;;;;;;34.33;22.60;;;;;;;-0.79;98.20;99880.58;1757299;80;20982;-81
2020/12/29 08:38:57;;;;;;;36.55;23.20;;;;;;;-0.80;98.11;99895.53;1753213;79;22084;-80
2020/12/29 08:41:26;;;;;;;33.10;20.90;;;;;;;-0.81;98.21;99890.01;1781460;79;21016;-72
2020/12/29 08:43:54;;;;;;;36.28;24.27;;;;;;;-0.81;98.17;99879.34;1776731;79;21080;-70
2020/12/29 08:46:24;;;;;;;37.88;23.18;;;;;;;-0.81;98.15;99874.23;1782092;79;21219;-77
2020/12/29 08:49:17;;;;;;;36.88;23.70;;;;;;;-0.81;98.20;99860.17;1764266;79;21686;-72
2020/12/29 08:51:45;;;;;;;31.75;21.05;;;;;;;-0.78;98.31;99860.54;1742025;81;22353;-69
2020/12/29 08:54:16;;;;;;;31.62;21.10;;;;;;;-0.75;98.28;99846.01;1732960;82;21645;-69
2020/12/29 08:56:46;;;;;;;35.68;23.95;;;;;;;-0.75;98.18;99851.13;1713349;82;21597;-71
2020/12/29 08:59:22;;;;;;;31.77;20.17;;;;;;;-0.75;98.20;99842.17;1735428;81;20976;-68
2020/12/29 09:01:57;;;;;;;36.38;22.20;;;;;;;-0.73;98.21;99851.95;1711135;82;21076;-67
2020/12/29 09:04:40;;;;;;;29.18;18.80;;;;;;;-0.72;98.11;99851.08;1778796;80;21302;-72
2020/12/29 09:07:13;;;;;;;27.62;18.27;;;;;;;-0.70;98.11;99840.41;1770167;80;21521;-74
2020/12/29 09:09:58;;;;;;;41.48;27.17;;;;;;;-0.69;98.00;99834.86;1773706;80;21107;-69
2020/12/29 09:12:31;;;;;;;30.97;20.65;;;;;;;-0.70;97.90;99826.34;1760928;80;21664;-72
2020/12/29 09:15:13;;;;;;;32.73;21.35;;;;;;;-0.71;97.93;99826.36;1773232;80;21040;-73
2020/12/29 09:17:43;;;;;;;29.20;18.07;;;;;;;-0.73;97.85;99814.03;1743514;80;21360;-74
2020/12/29 09:20:29;;;;;;;26.33;17.15;;;;;;;-0.75;97.96;99818.32;1778999;80;21023;-68
2020/12/29 09:23:12;;;;;;;36.40;21.70;;;;;;;-0.77;98.04;99811.95;1762605;80;21401;-76
2020/12/29 09:25:42;;;;;;;32.58;19.98;;;;;;;-0.79;98.11;99801.33;1772924;80;21016;-77
2020/12/29 09:28:25;;;;;;;34.60;21.97;;;;;;;-0.80;98.29;99790.27;1757132;80;21083;-75
2020/12/29 09:31:13;;;;;;;29.63;20.20;;;;;;;-0.81;98.39;99785.20;1777326;80;21664;-72
2020/12/29 09:33:36;;;;;;;32.55;19.85;;;;;;;-0.81;98.62;99761.77;1773659;80;21725;-79
2020/12/29 09:36:09;;;;;;;34.05;20.15;;;;;;;-0.80;98.70;99781.31;1786968;80;21834;-81
2020/12/29 09:38:38;;;;;;;30.62;18.82;;;;;;;-0.81;98.83;99774.97;1772554;80;20981;-77
2020/12/29 09:41:06;;;;;;;32.78;20.12;;;;;;;-0.79;98.95;99773.21;1775804;80;21685;-75
2020/12/29 09:43:35;;;;;;;31.20;20.23;;;;;;;-0.78;98.98;99756.58;1778117;80;22059;-80
2020/12/29 09:46:03;;;;;;;32.03;19.92;;;;;;;-0.78;99.05;99755.30;1776468;79;21043;-81
2020/12/29 09:48:32;;;;;;;36.10;22.95;;;;;;;-0.75;99.23;99742.47;1778140;80;21495;-73
2020/12/29 09:51:00;;;;;;;35.00;22.40;;;;;;;-0.74;99.16;99739.05;1771168;80;21056;-73
2020/12/29 09:53:28;;;;;;;33.50;20.00;;;;;;;-0.75;99.20;99734.80;1757808;80;21074;-69
2020/12/29 09:55:57;;;;;;;28.47;19.37;;;;;;;-0.76;99.31;99734.39;1764926;80;21558;-78
2020/12/29 09:58:25;;;;;;;29.63;19.20;;;;;;;-0.78;99.46;99728.45;1756294;80;21104;-80
2020/12/29 10:00:55;;;;;;;27.93;18.25;;;;;;;-0.77;99.58;99725.47;1752333;80;21601;-73
2020/12/29 10:03:25;;;;;;;25.85;16.45;;;;;;;-0.78;99.75;99726.33;1764444;80;21589;-74
2020/12/29 10:05:53;;;;;;;32.03;19.60;;;;;;;-0.79;100.00;99713.98;1766282;80;21020;-73
2020/12/29 10:08:21;;;;;;;35.90;23.60;;;;;;;-0.79;100.00;99710.58;1772723;80;21202;-79
2020/12/29 10:10:50;;;;;;;28.32;17.50;;;;;;;-0.78;100.00;99706.73;1748411;80;21108;-72
2020/12/29 10:13:18;;;;;;;29.80;18.90;;;;;;;-0.75;100.00;99709.67;1746169;80;20954;-82
2020/12/29 10:15:48;;;;;;;26.57;18.27;;;;;;;-0.73;100.00;99712.61;1746477;81;21089;-80
2020/12/29 10:18:16;;;;;;;28.02;16.82;;;;;;;-0.72;100.00;99711.75;1760936;80;21096;-75
2020/12/29 10:20:45;;;;;;;29.40;18.75;;;;;;;-0.71;100.00;99696.81;1760378;80;21118;-71
2020/12/29 10:23:13;;;;;;;30.77;18.92;;;;;;;-0.69;100.00;99695.09;1781763;80;21074;-72
2020/12/29 10:25:42;;;;;;;31.15;19.65;;;;;;;-0.65;100.00;99695.03;1768791;80;21122;-71
2020/12/29 10:28:10;;;;;;;31.65;19.07;;;;;;;-0.63;100.00;99681.36;1763375;80;21012;-78
2020/12/29 10:30:38;;;;;;;27.15;17.90;;;;;;;-0.62;100.00;99691.16;1752128;80;21056;-71
2020/12/29 10:33:06;;;;;;;30.50;19.15;;;;;;;-0.60;100.00;99680.03;1710702;81;21222;-78
2020/12/29 10:35:35;;;;;;;30.57;19.05;;;;;;;-0.56;100.00;99682.11;1683756;84;21009;-76
2020/12/29 10:38:04;;;;;;;25.23;16.25;;;;;;;-0.54;100.00;99672.70;1701943;82;21076;-76
2020/12/29 10:40:33;;;;;;;26.82;16.77;;;;;;;-0.51;100.00;99672.22;1729153;82;21019;-76
2020/12/29 10:43:02;;;;;;;28.50;18.50;;;;;;;-0.49;100.00;99673.47;1683439;84;21266;-76
2020/12/29 10:45:30;;;;;;;26.73;17.17;;;;;;;-0.48;100.00;99682.83;1719893;82;22137;-81
2020/12/29 10:47:58;;;;;;;26.40;15.88;;;;;;;-0.47;100.00;99683.23;1750296;80;21618;-79
2020/12/29 10:50:27;;;;;;;26.27;16.55;;;;;;;-0.46;100.00;99690.88;1763588;80;21595;-77
2020/12/29 10:52:55;;;;;;;30.12;18.42;;;;;;;-0.43;100.00;99697.66;1786617;80;21177;-75
2020/12/29 10:55:23;;;;;;;32.55;20.77;;;;;;;-0.43;100.00;99707.46;1776043;80;21769;-77
2020/12/29 10:57:52;;;;;;;27.00;17.23;;;;;;;-0.41;100.00;99720.23;1772699;80;21160;-82
2020/12/29 11:00:20;;;;;;;25.92;17.25;;;;;;;-0.38;100.00;99729.09;1768571;80;21009;-80
2020/12/29 11:02:49;;;;;;;22.00;15.30;;;;;;;-0.35;100.00;99716.26;1766520;80;21025;-68
2020/12/29 11:05:17;;;;;;;25.00;16.57;;;;;;;-0.31;100.00;99728.56;1782883;80;21039;-77
2020/12/29 11:07:46;;;;;;;23.27;15.00;;;;;;;-0.28;100.00;99717.00;1773284;80;21178;-69
2020/12/29 11:10:14;;;;;;;25.55;18.05;;;;;;;-0.26;100.00;99702.03;1768051;80;22167;-74
2020/12/29 11:12:42;;;;;;;23.45;15.75;;;;;;;-0.24;100.00;99684.09;1775352;80;21131;-75
2020/12/29 11:15:11;;;;;;;24.40;14.85;;;;;;;-0.22;100.00;99679.36;1783954;80;21638;-75
2020/12/29 11:17:39;;;;;;;25.00;16.62;;;;;;;-0.20;100.00;99690.41;1775583;80;21684;-75
2020/12/29 11:20:09;;;;;;;27.37;16.75;;;;;;;-0.19;100.00;99684.43;1779037;80;21342;-73
2020/12/29 11:22:37;;;;;;;26.33;17.42;;;;;;;-0.18;100.00;99686.55;1779629;80;21471;-70
2020/12/29 11:25:07;;;;;;;25.05;15.53;;;;;;;-0.17;100.00;99694.20;1781137;80;21669;-74
2020/12/29 11:27:36;;;;;;;26.52;17.92;;;;;;;-0.14;100.00;99704.38;1780474;80;21040;-73